Time;durP1;ratioP1;P1;durP2;ratioP2;P2;SDS_P1;SDS_P2;PMS_P1;PMS_P2;Temp;Humidity;BMP_temperature;BMP_pressure;BME280_temperature;BME280_humidity;BME280_pressure;Samples;Min_cycle;Max_cycle;Signal;HPM_P1;HPM_P2
2022/12/29 00:01:52;;;;;;;1.60;0.70;;;10.60;99.90;;;;;;5018295;28;20394;-72
2022/12/29 00:04:18;;;;;;;3.90;0.98;;;10.60;99.90;;;;;;5019529;28;20033;-72
2022/12/29 00:06:44;;;;;;;2.05;0.60;;;10.50;99.90;;;;;;5019093;28;20858;-71
2022/12/29 00:09:15;;;;;;;1.55;0.90;;;10.60;99.90;;;;;;5001774;28;20044;-73
2022/12/29 00:11:40;;;;;;;;;;;10.70;99.90;;;;;;5018821;28;20213;-72
2022/12/29 00:16:52;;;;;;;5.05;0.80;;;10.70;99.90;;;;;;5020032;28;20437;-73
2022/12/29 00:35:57;;;;;;;1.15;0.60;;;10.90;99.90;;;;;;5016735;28;20041;-72
2022/12/29 00:44:06;;;;;;;2.22;0.40;;;10.90;99.90;;;;;;5016482;28;20445;-70
2022/12/29 00:46:36;;;;;;;1.23;0.40;;;10.90;99.90;;;;;;5013276;28;20034;-72
2022/12/29 00:51:47;;;;;;;0.80;0.40;;;10.90;99.90;;;;;;5018861;28;20056;-73
2022/12/29 00:54:14;;;;;;;1.48;0.52;;;10.90;99.90;;;;;;5017047;28;20044;-73
2022/12/29 00:56:39;;;;;;;0.60;0.40;;;10.90;99.90;;;;;;5017803;28;20125;-73
2022/12/29 00:59:08;;;;;;;1.85;0.50;;;11.00;99.90;;;;;;5018823;28;20148;-72
2022/12/29 01:01:34;;;;;;;1.83;0.38;;;10.90;99.90;;;;;;5016515;28;20407;-72
2022/12/29 01:03:59;;;;;;;3.10;0.50;;;10.90;99.90;;;;;;5014902;28;20030;-73
2022/12/29 01:06:25;;;;;;;2.17;0.40;;;10.90;99.90;;;;;;5019006;28;20049;-74
2022/12/29 01:10:09;;;;;;;1.00;0.30;;;10.90;99.90;;;;;;5016272;28;20075;-72
2022/12/29 01:11:38;;;;;;;2.15;0.50;;;10.90;99.90;;;;;;5015171;28;20041;-71
2022/12/29 01:14:04;;;;;;;1.50;0.40;;;10.80;99.90;;;;;;5018399;28;20082;-73
2022/12/29 01:16:30;;;;;;;3.38;0.55;;;10.70;99.90;;;;;;5015789;28;20041;-72
2022/12/29 01:18:56;;;;;;;1.63;0.75;;;10.60;99.90;;;;;;5019513;28;20041;-72
2022/12/29 01:21:22;;;;;;;1.80;0.35;;;10.50;99.90;;;;;;5015347;28;20030;-72
2022/12/29 01:23:47;;;;;;;0.82;0.55;;;10.40;99.90;;;;;;5019153;28;20033;-72
2022/12/29 01:26:15;;;;;;;3.67;0.28;;;10.40;99.90;;;;;;5013875;28;20034;-72
2022/12/29 01:28:41;;;;;;;1.23;0.52;;;10.40;99.90;;;;;;5016500;28;20072;-72
2022/12/29 01:31:12;;;;;;;2.13;0.30;;;10.40;99.90;;;;;;5017542;28;20038;-68
2022/12/29 01:33:38;;;;;;;3.03;0.50;;;10.40;99.90;;;;;;5017019;28;20426;-71
2022/12/29 01:36:06;;;;;;;3.33;0.60;;;10.40;99.90;;;;;;5017347;28;20192;-71
2022/12/29 01:38:32;;;;;;;1.67;0.63;;;10.30;99.90;;;;;;5017756;28;20037;-72
2022/12/29 01:40:58;;;;;;;1.48;0.60;;;10.30;99.90;;;;;;5016370;28;20030;-72
2022/12/29 01:43:46;;;;;;;2.28;0.65;;;10.40;99.90;;;;;;5017426;28;20059;-72
2022/12/29 01:46:32;;;;;;;2.30;0.40;;;10.30;99.90;;;;;;5018044;28;20402;-72
2022/12/29 01:49:07;;;;;;;5.72;0.75;;;10.30;99.90;;;;;;5012784;28;20033;-71
2022/12/29 01:51:42;;;;;;;1.90;0.63;;;10.30;99.90;;;;;;5016933;28;20065;-72
2022/12/29 01:54:17;;;;;;;0.70;0.30;;;10.30;99.90;;;;;;5015016;28;20437;-70
2022/12/29 01:56:43;;;;;;;1.65;0.55;;;10.30;99.90;;;;;;5018036;28;20045;-72
2022/12/29 01:59:14;;;;;;;1.05;0.55;;;10.30;99.90;;;;;;5017641;28;20496;-70
2022/12/29 02:01:40;;;;;;;3.30;0.55;;;10.30;99.90;;;;;;5018166;28;20030;-72
2022/12/29 02:04:09;;;;;;;2.80;0.65;;;10.30;99.90;;;;;;5013503;28;20041;-72
2022/12/29 02:06:43;;;;;;;1.05;0.50;;;10.30;99.90;;;;;;5019380;28;20053;-72
2022/12/29 02:09:09;;;;;;;1.80;0.60;;;10.30;99.90;;;;;;5007838;28;20034;-71
2022/12/29 02:11:36;;;;;;;2.00;0.77;;;10.30;99.90;;;;;;5013362;28;20042;-73
2022/12/29 02:14:04;;;;;;;4.15;0.70;;;10.40;99.90;;;;;;5019554;28;20045;-72
2022/12/29 02:17:03;;;;;;;1.95;0.90;;;10.40;99.90;;;;;;4998544;28;20482;-72
2022/12/29 02:20:00;;;;;;;1.50;0.40;;;10.40;99.90;;;;;;5014580;28;20036;-73
2022/12/29 02:22:49;;;;;;;2.40;0.40;;;10.50;99.90;;;;;;5012166;28;20044;-71
2022/12/29 02:25:57;;;;;;;2.30;0.50;;;10.40;99.90;;;;;;5012928;28;20088;-71
2022/12/29 02:28:25;;;;;;;1.85;0.30;;;10.40;99.90;;;;;;5010996;28;20099;-72
2022/12/29 02:31:09;;;;;;;2.03;0.52;;;10.30;99.90;;;;;;5015289;28;20099;-72
2022/12/29 02:33:38;;;;;;;1.95;0.68;;;10.40;99.90;;;;;;5016207;28;20041;-72
2022/12/29 02:36:22;;;;;;;6.10;0.55;;;10.40;99.90;;;;;;5017323;28;20163;-72
2022/12/29 02:39:02;;;;;;;1.02;0.40;;;10.40;99.90;;;;;;5011289;28;20053;-72
2022/12/29 02:41:38;;;;;;;4.03;0.40;;;10.40;99.90;;;;;;5012953;28;20041;-71
2022/12/29 02:44:20;;;;;;;1.98;0.40;;;10.30;99.90;;;;;;5013353;28;20041;-73
2022/12/29 02:47:08;;;;;;;0.85;0.20;;;10.30;99.90;;;;;;5010599;28;20114;-72
2022/12/29 02:49:56;;;;;;;2.33;0.30;;;10.20;99.90;;;;;;4967243;28;20112;-73
2022/12/29 02:52:28;;;;;;;1.55;0.25;;;10.30;99.90;;;;;;5012054;28;20041;-74
2022/12/29 02:54:54;;;;;;;2.03;0.20;;;10.20;99.90;;;;;;5017926;28;20040;-71
2022/12/29 02:57:20;;;;;;;5.80;0.28;;;10.20;99.90;;;;;;5014956;28;20030;-72
2022/12/29 02:59:51;;;;;;;3.35;0.20;;;10.20;99.90;;;;;;5018453;28;20695;-72
2022/12/29 03:02:32;;;;;;;2.55;0.32;;;10.30;99.90;;;;;;5015314;28;20543;-72
2022/12/29 03:05:22;;;;;;;1.67;0.38;;;10.20;99.90;;;;;;5018104;28;20034;-72
2022/12/29 03:08:06;;;;;;;3.17;0.30;;;10.30;99.90;;;;;;5015397;28;20379;-72
2022/12/29 03:11:00;;;;;;;4.47;0.30;;;10.20;99.90;;;;;;5000497;28;20046;-71
2022/12/29 03:16:49;;;;;;;3.67;0.20;;;10.20;99.90;;;;;;5017432;28;20048;-71
2022/12/29 03:19:26;;;;;;;2.65;0.20;;;10.10;99.90;;;;;;5000129;28;20498;-72
2022/12/29 03:24:56;;;;;;;5.18;1.08;;;10.00;99.90;;;;;;5015798;28;20457;-72
2022/12/29 03:27:32;;;;;;;4.18;0.38;;;9.90;99.90;;;;;;5025152;28;20112;-72
2022/12/29 03:30:02;;;;;;;2.50;0.20;;;9.90;99.90;;;;;;5020249;28;20084;-72
2022/12/29 03:32:56;;;;;;;3.65;0.55;;;9.90;99.90;;;;;;5019722;28;20037;-71
2022/12/29 03:35:27;;;;;;;5.88;0.70;;;9.90;99.90;;;;;;5013209;28;20049;-71
2022/12/29 03:37:59;;;;;;;2.58;0.30;;;9.90;99.90;;;;;;5021087;28;20018;-72
2022/12/29 03:40:27;;;;;;;3.85;0.30;;;9.90;99.90;;;;;;5018727;28;20045;-72
2022/12/29 03:42:53;;;;;;;3.00;0.32;;;10.00;99.90;;;;;;5021106;28;20037;-72
2022/12/29 03:45:19;;;;;;;4.97;0.55;;;10.00;99.90;;;;;;5017771;28;20033;-71
2022/12/29 03:47:45;;;;;;;1.48;0.45;;;10.00;99.90;;;;;;5017695;28;20030;-71
2022/12/29 03:50:12;;;;;;;1.98;0.77;;;9.90;99.90;;;;;;5020424;28;20458;-71
2022/12/29 03:52:37;;;;;;;3.85;0.25;;;9.90;99.90;;;;;;5018357;28;20033;-72
2022/12/29 03:55:03;;;;;;;1.27;0.30;;;9.90;99.90;;;;;;5020399;28;20502;-71
2022/12/29 03:57:29;;;;;;;2.75;0.10;;;9.80;99.90;;;;;;5018947;28;20029;-73
2022/12/29 03:59:54;;;;;;;2.67;0.43;;;9.80;99.90;;;;;;5001571;28;20102;-72
2022/12/29 04:02:20;;;;;;;5.00;0.30;;;9.80;99.90;;;;;;5020073;28;20021;-72
2022/12/29 04:04:46;;;;;;;4.85;0.90;;;9.70;99.90;;;;;;5018252;28;20026;-73
2022/12/29 04:07:11;;;;;;;1.88;0.45;;;9.60;99.90;;;;;;5020948;28;20104;-70
2022/12/29 04:09:37;;;;;;;1.23;0.40;;;9.60;99.90;;;;;;5017622;28;20498;-73
2022/12/29 04:12:03;;;;;;;3.90;0.40;;;9.60;99.90;;;;;;5018798;28;20126;-71
2022/12/29 04:14:28;;;;;;;3.00;0.43;;;9.60;99.90;;;;;;5017971;28;20037;-72
2022/12/29 04:16:54;;;;;;;3.08;0.75;;;9.60;99.90;;;;;;5013996;28;20450;-71
2022/12/29 04:19:20;;;;;;;3.40;0.30;;;9.70;99.90;;;;;;5017669;28;20036;-71
2022/12/29 04:21:45;;;;;;;2.65;0.60;;;9.80;99.90;;;;;;5020831;28;20128;-72
2022/12/29 04:24:12;;;;;;;7.38;1.10;;;9.80;99.90;;;;;;5017069;28;20128;-72
2022/12/29 04:26:38;;;;;;;4.85;0.52;;;9.80;99.90;;;;;;5017547;28;20046;-72
2022/12/29 04:29:04;;;;;;;8.23;0.88;;;9.90;99.90;;;;;;5020343;28;20069;-72
2022/12/29 04:31:29;;;;;;;7.28;0.77;;;10.00;99.90;;;;;;5018653;28;20556;-73
2022/12/29 04:33:56;;;;;;;7.18;0.50;;;10.00;99.90;;;;;;5019210;28;20040;-72
2022/12/29 04:36:23;;;;;;;2.92;0.60;;;10.10;99.90;;;;;;5019951;28;20045;-72
2022/12/29 04:38:48;;;;;;;6.05;0.65;;;10.00;99.90;;;;;;5000929;28;20045;-71
2022/12/29 04:41:14;;;;;;;4.63;1.75;;;10.10;99.90;;;;;;5020809;28;20030;-71
2022/12/29 04:43:40;;;;;;;5.65;1.80;;;10.10;99.90;;;;;;5018939;28;20053;-72
2022/12/29 04:46:06;;;;;;;2.13;0.50;;;10.00;99.90;;;;;;5018174;28;20116;-72
2022/12/29 04:48:31;;;;;;;7.90;0.40;;;9.90;99.90;;;;;;5019768;28;20060;-72
2022/12/29 04:50:57;;;;;;;5.25;0.60;;;9.80;99.90;;;;;;5018625;28;20124;-72
2022/12/29 04:53:23;;;;;;;3.30;0.47;;;9.80;99.90;;;;;;5018838;28;20034;-71
2022/12/29 04:55:52;;;;;;;2.83;0.35;;;9.70;99.90;;;;;;5019520;28;20040;-72
2022/12/29 04:58:21;;;;;;;6.43;1.15;;;9.60;99.90;;;;;;5017226;28;20034;-71
2022/12/29 05:00:47;;;;;;;6.82;1.20;;;9.60;99.90;;;;;;5019571;28;20041;-72
2022/12/29 05:03:13;;;;;;;7.95;0.60;;;9.50;99.90;;;;;;5016754;28;20045;-71
2022/12/29 05:05:38;;;;;;;3.60;0.93;;;9.40;99.90;;;;;;5020854;28;20371;-71
2022/12/29 05:08:04;;;;;;;9.10;2.25;;;9.40;99.90;;;;;;5020118;28;20041;-72
2022/12/29 05:10:30;;;;;;;5.43;1.13;;;9.40;99.90;;;;;;4999364;28;20084;-73
2022/12/29 05:12:57;;;;;;;7.18;1.02;;;9.50;99.90;;;;;;5018979;28;20450;-72
2022/12/29 05:15:22;;;;;;;7.18;0.80;;;9.60;99.90;;;;;;5018603;28;20041;-71
2022/12/29 05:17:48;;;;;;;10.00;1.13;;;9.60;99.90;;;;;;5011220;28;20080;-72
2022/12/29 05:20:14;;;;;;;4.25;0.65;;;9.60;99.90;;;;;;5019501;28;20076;-72
2022/12/29 05:22:39;;;;;;;8.60;0.80;;;9.70;99.90;;;;;;5016894;28;20394;-73
2022/12/29 05:25:05;;;;;;;5.18;0.90;;;9.60;99.90;;;;;;5015956;28;20036;-71
2022/12/29 05:27:32;;;;;;;13.90;2.38;;;9.60;99.90;;;;;;4997862;28;20048;-71
2022/12/29 05:29:57;;;;;;;12.18;0.60;;;9.60;99.90;;;;;;5022031;28;20120;-72
2022/12/29 05:32:23;;;;;;;5.30;1.35;;;9.50;99.90;;;;;;5018059;28;20134;-72
2022/12/29 05:34:49;;;;;;;8.25;0.98;;;9.40;99.90;;;;;;5019311;28;20084;-72
2022/12/29 05:37:15;;;;;;;8.68;0.73;;;9.40;99.90;;;;;;5015491;28;20096;-71
2022/12/29 05:39:40;;;;;;;15.70;1.55;;;9.30;99.90;;;;;;5019177;28;20502;-72
2022/12/29 05:42:06;;;;;;;12.18;1.20;;;9.30;99.90;;;;;;5016599;28;20129;-72
2022/12/29 05:44:31;;;;;;;6.18;0.95;;;9.30;99.90;;;;;;4999912;28;20033;-71
2022/12/29 05:46:57;;;;;;;6.88;1.20;;;9.30;99.90;;;;;;5017491;28;20103;-72
2022/12/29 05:49:23;;;;;;;3.75;0.80;;;9.20;99.90;;;;;;5020365;28;20041;-72
2022/12/29 05:51:48;;;;;;;5.32;1.63;;;9.40;99.90;;;;;;5019075;28;20037;-72
2022/12/29 05:54:14;;;;;;;11.25;1.10;;;9.30;99.90;;;;;;5011377;28;20898;-72
2022/12/29 05:56:39;;;;;;;11.30;1.38;;;9.30;99.90;;;;;;4996332;28;20103;-72
2022/12/29 05:59:05;;;;;;;16.80;1.02;;;9.30;99.90;;;;;;5009556;28;20038;-72
2022/12/29 06:01:31;;;;;;;4.78;0.90;;;9.30;99.90;;;;;;5014717;28;20026;-70
2022/12/29 06:03:56;;;;;;;11.55;2.10;;;9.30;99.90;;;;;;5000676;28;20053;-74
2022/12/29 06:06:22;;;;;;;12.05;1.35;;;9.30;99.90;;;;;;5016594;28;20120;-71
2022/12/29 06:08:48;;;;;;;10.05;1.40;;;9.20;99.90;;;;;;4996951;28;20046;-71
2022/12/29 06:11:13;;;;;;;10.18;1.70;;;9.20;99.90;;;;;;5017734;28;20025;-72
2022/12/29 06:13:39;;;;;;;5.07;1.10;;;9.20;99.90;;;;;;5019746;28;20041;-71
2022/12/29 06:16:05;;;;;;;11.40;1.33;;;9.20;99.90;;;;;;5015526;28;20124;-71
2022/12/29 06:18:31;;;;;;;8.45;1.60;;;9.20;99.90;;;;;;5016267;28;20491;-71
2022/12/29 06:21:01;;;;;;;9.82;1.15;;;9.20;99.90;;;;;;5018535;28;20041;-72
2022/12/29 06:23:27;;;;;;;13.30;1.45;;;9.20;99.90;;;;;;5011890;28;20136;-72
2022/12/29 06:25:52;;;;;;;4.45;1.20;;;9.10;99.90;;;;;;5012913;28;20563;-72
2022/12/29 06:28:18;;;;;;;9.75;1.73;;;9.10;99.90;;;;;;5017437;28;20375;-71
2022/12/29 06:30:45;;;;;;;16.13;1.00;;;9.00;99.90;;;;;;5014764;28;22138;-73
2022/12/29 06:33:11;;;;;;;9.00;1.77;;;9.10;99.90;;;;;;5015443;28;20034;-72
2022/12/29 06:35:37;;;;;;;13.90;0.80;;;9.00;99.90;;;;;;5018692;28;20044;-71
2022/12/29 06:38:02;;;;;;;10.63;0.90;;;9.00;99.90;;;;;;5025844;28;20025;-71
2022/12/29 06:40:28;;;;;;;12.95;2.60;;;9.00;99.90;;;;;;5021034;28;20038;-74
2022/12/29 06:42:54;;;;;;;7.38;1.20;;;9.00;99.90;;;;;;5024654;28;20046;-74
2022/12/29 06:45:19;;;;;;;7.88;1.25;;;9.00;99.90;;;;;;5021660;28;20033;-73
2022/12/29 06:47:45;;;;;;;9.82;0.90;;;9.00;99.90;;;;;;5024813;28;20052;-71
2022/12/29 06:50:10;;;;;;;9.75;1.02;;;9.10;99.90;;;;;;5021820;28;20108;-72
2022/12/29 06:52:36;;;;;;;15.45;1.40;;;9.10;99.90;;;;;;5023589;28;20394;-71
2022/12/29 06:55:02;;;;;;;8.95;1.45;;;9.20;99.90;;;;;;5021634;28;20029;-71
2022/12/29 06:57:27;;;;;;;11.88;1.25;;;9.30;99.90;;;;;;5021925;28;20546;-73
2022/12/29 06:59:55;;;;;;;9.52;2.60;;;9.30;99.90;;;;;;5021307;28;20033;-73
2022/12/29 07:02:21;;;;;;;19.08;1.42;;;9.30;99.90;;;;;;5002007;28;20022;-73
2022/12/29 07:04:47;;;;;;;8.70;1.25;;;9.30;99.90;;;;;;5018362;28;20479;-72
2022/12/29 07:07:12;;;;;;;22.05;1.58;;;9.20;99.90;;;;;;5020555;28;20109;-72
2022/12/29 07:09:38;;;;;;;10.60;1.63;;;9.10;99.90;;;;;;5013630;28;20038;-72
2022/12/29 07:12:04;;;;;;;7.65;0.63;;;9.00;99.90;;;;;;5002397;28;20033;-73
2022/12/29 07:14:29;;;;;;;8.90;1.65;;;8.90;99.90;;;;;;5011695;28;20032;-72
2022/12/29 07:16:55;;;;;;;5.20;0.70;;;8.90;99.90;;;;;;5019500;28;20071;-74
2022/12/29 07:19:20;;;;;;;7.25;0.88;;;8.90;99.90;;;;;;5006313;28;20030;-70
2022/12/29 07:21:46;;;;;;;5.93;1.35;;;8.80;99.90;;;;;;5020812;28;20056;-72
2022/12/29 07:24:12;;;;;;;5.45;0.75;;;8.70;99.90;;;;;;5019241;28;20042;-72
2022/12/29 07:26:37;;;;;;;10.85;1.02;;;8.70;99.90;;;;;;5022762;28;20042;-72
2022/12/29 07:29:04;;;;;;;7.80;1.45;;;8.70;99.90;;;;;;5018953;28;20466;-73
2022/12/29 07:31:30;;;;;;;5.93;1.80;;;8.70;99.90;;;;;;5019574;28;20421;-72
2022/12/29 07:33:56;;;;;;;10.77;0.95;;;8.70;99.90;;;;;;5019748;28;20030;-73
2022/12/29 07:36:21;;;;;;;8.18;0.73;;;8.70;99.90;;;;;;5022424;28;20797;-71
2022/12/29 07:38:47;;;;;;;5.88;0.90;;;8.70;99.90;;;;;;5020394;28;20048;-73
2022/12/29 07:41:13;;;;;;;11.13;0.77;;;8.80;99.90;;;;;;5011881;28;20445;-72
2022/12/29 07:43:39;;;;;;;7.10;0.73;;;8.90;99.90;;;;;;5018658;28;20033;-73
2022/12/29 07:46:04;;;;;;;8.45;1.00;;;8.90;99.90;;;;;;5016219;28;20112;-73
2022/12/29 07:48:30;;;;;;;10.45;1.65;;;8.90;99.90;;;;;;5017466;28;20038;-73
2022/12/29 07:50:56;;;;;;;12.52;1.60;;;9.00;99.90;;;;;;5020835;28;20573;-74
2022/12/29 07:53:21;;;;;;;6.97;1.08;;;9.00;99.90;;;;;;5018374;28;20060;-73
2022/12/29 07:55:47;;;;;;;11.55;1.50;;;9.10;99.90;;;;;;5019717;28;20514;-73
2022/12/29 07:58:12;;;;;;;10.63;1.00;;;9.10;99.90;;;;;;5018470;28;20048;-71
2022/12/29 08:00:38;;;;;;;7.15;1.27;;;9.10;99.90;;;;;;5017174;28;20736;-72
2022/12/29 08:03:04;;;;;;;4.18;0.68;;;9.20;99.90;;;;;;5014370;28;20117;-72
2022/12/29 08:05:32;;;;;;;5.85;0.95;;;9.20;99.90;;;;;;5003090;28;20605;-72
2022/12/29 08:07:57;;;;;;;9.02;2.40;;;9.20;99.90;;;;;;5007936;28;20041;-71
2022/12/29 08:10:23;;;;;;;11.77;1.63;;;9.30;99.90;;;;;;5006152;28;20050;-73
2022/12/29 08:12:48;;;;;;;6.53;0.88;;;9.30;99.90;;;;;;4999965;28;20073;-73
2022/12/29 08:15:14;;;;;;;8.32;1.55;;;9.40;99.90;;;;;;4988620;28;20103;-73
2022/12/29 08:17:40;;;;;;;9.52;1.13;;;9.30;99.90;;;;;;4991816;28;20105;-72
2022/12/29 08:20:07;;;;;;;12.63;1.08;;;9.40;99.90;;;;;;5002741;28;20041;-71
2022/12/29 08:22:32;;;;;;;12.43;1.00;;;9.40;99.90;;;;;;5007257;28;20576;-72
2022/12/29 08:24:58;;;;;;;5.18;1.42;;;9.40;99.90;;;;;;5012263;28;20038;-71
2022/12/29 08:27:23;;;;;;;10.07;0.90;;;9.50;99.90;;;;;;5015061;28;20040;-72
2022/12/29 08:29:49;;;;;;;6.30;1.40;;;9.50;99.90;;;;;;5007459;28;20784;-71
2022/12/29 08:32:15;;;;;;;6.82;1.08;;;9.50;99.90;;;;;;5005852;28;20034;-71
2022/12/29 08:34:41;;;;;;;10.60;2.00;;;9.40;99.90;;;;;;5004702;28;20402;-72
2022/12/29 08:37:06;;;;;;;10.00;1.30;;;9.40;99.90;;;;;;5006914;28;20036;-71
2022/12/29 08:39:32;;;;;;;6.35;1.70;;;9.30;99.90;;;;;;5006068;28;20042;-74
2022/12/29 08:41:58;;;;;;;12.07;1.45;;;9.20;99.90;;;;;;5009951;28;20093;-72
2022/12/29 08:44:24;;;;;;;6.53;1.48;;;9.20;99.90;;;;;;5006540;28;20052;-70
2022/12/29 08:46:49;;;;;;;10.70;2.00;;;9.20;99.90;;;;;;5006054;28;20037;-73
2022/12/29 08:49:15;;;;;;;10.23;1.60;;;9.30;99.90;;;;;;5007828;28;20660;-72
2022/12/29 08:51:40;;;;;;;15.23;1.35;;;9.20;99.90;;;;;;5005881;28;20038;-71
2022/12/29 08:54:06;;;;;;;7.82;1.15;;;9.20;99.90;;;;;;5007016;28;20030;-72
2022/12/29 08:56:32;;;;;;;13.00;1.40;;;9.20;99.90;;;;;;5000999;28;20053;-70
2022/12/29 08:58:58;;;;;;;11.80;3.13;;;9.30;99.90;;;;;;4988927;28;20788;-72
2022/12/29 09:01:23;;;;;;;10.55;1.67;;;9.30;99.90;;;;;;5006756;28;20077;-73
2022/12/29 09:03:49;;;;;;;3.17;0.80;;;9.40;99.90;;;;;;5007665;28;20033;-72
2022/12/29 09:06:16;;;;;;;6.00;0.93;;;9.40;99.90;;;;;;5007540;28;20033;-73
2022/12/29 09:08:43;;;;;;;13.32;1.20;;;9.40;99.90;;;;;;5012668;28;20057;-72
2022/12/29 09:11:17;;;;;;;14.95;1.40;;;9.40;99.90;;;;;;5021163;28;20045;-71
2022/12/29 09:13:42;;;;;;;6.18;0.90;;;9.40;99.90;;;;;;5018474;28;20100;-72
2022/12/29 09:16:09;;;;;;;11.32;1.20;;;9.30;99.90;;;;;;5015728;28;20034;-73
2022/12/29 09:18:35;;;;;;;7.60;1.73;;;9.30;99.90;;;;;;5020402;28;20662;-73
2022/12/29 09:21:03;;;;;;;7.28;0.98;;;9.30;99.90;;;;;;5018676;28;20034;-71
2022/12/29 09:23:29;;;;;;;9.40;1.15;;;9.20;99.90;;;;;;5016476;28;20409;-72
2022/12/29 09:25:54;;;;;;;11.30;1.05;;;9.20;99.90;;;;;;5015528;28;20092;-72
2022/12/29 09:28:21;;;;;;;7.28;1.17;;;9.10;99.90;;;;;;5016196;28;20099;-71
2022/12/29 09:30:47;;;;;;;11.45;1.00;;;9.10;99.90;;;;;;5017455;28;20498;-72
2022/12/29 09:33:13;;;;;;;8.57;1.73;;;9.00;99.90;;;;;;5016445;28;20099;-72
2022/12/29 09:35:49;;;;;;;10.52;2.60;;;9.00;99.90;;;;;;5015755;28;20498;-71
2022/12/29 09:38:15;;;;;;;7.40;0.90;;;9.00;99.90;;;;;;5015811;28;20144;-72
2022/12/29 09:40:43;;;;;;;6.45;1.08;;;8.90;99.90;;;;;;5014650;28;20029;-71
2022/12/29 09:43:32;;;;;;;14.75;1.17;;;8.90;99.90;;;;;;5016556;28;20037;-70
2022/12/29 09:46:13;;;;;;;7.32;2.13;;;8.90;99.90;;;;;;5013284;28;20470;-72
2022/12/29 09:48:44;;;;;;;9.30;0.70;;;8.90;99.90;;;;;;5019155;28;20135;-69
2022/12/29 09:51:15;;;;;;;12.00;1.40;;;8.90;99.90;;;;;;5017871;28;20053;-71
2022/12/29 09:53:46;;;;;;;11.98;1.25;;;8.90;99.90;;;;;;5019010;28;20091;-72
2022/12/29 09:56:19;;;;;;;8.18;0.90;;;9.00;99.90;;;;;;5018208;28;20037;-71
2022/12/29 09:58:57;;;;;;;4.75;1.38;;;9.00;99.90;;;;;;5019647;28;20041;-72
2022/12/29 10:01:46;;;;;;;6.55;1.00;;;9.00;99.90;;;;;;5020522;28;20045;-69
2022/12/29 10:04:12;;;;;;;9.82;1.20;;;9.00;99.90;;;;;;5016248;28;20065;-71
2022/12/29 10:06:57;;;;;;;8.93;1.77;;;9.00;99.90;;;;;;5019338;28;20061;-71
2022/12/29 10:09:47;;;;;;;6.00;1.77;;;9.00;99.90;;;;;;5019363;28;20060;-71
2022/12/29 10:12:49;;;;;;;6.17;0.40;;;9.00;99.90;;;;;;4997966;28;20095;-70
2022/12/29 10:15:34;;;;;;;10.10;1.05;;;9.00;99.90;;;;;;5018689;28;20072;-73
2022/12/29 10:18:18;;;;;;;12.68;1.73;;;9.10;99.90;;;;;;5013166;28;20095;-72
2022/12/29 10:20:53;;;;;;;7.03;0.73;;;9.10;99.90;;;;;;5017354;28;20125;-72
2022/12/29 10:23:28;;;;;;;5.50;0.60;;;9.10;99.90;;;;;;5012536;28;20037;-71
2022/12/29 10:25:58;;;;;;;7.28;0.63;;;9.10;99.90;;;;;;5013529;28;20112;-70
2022/12/29 10:28:39;;;;;;;6.43;1.60;;;9.20;99.90;;;;;;5012722;28;20034;-71
2022/12/29 10:31:22;;;;;;;9.93;1.08;;;9.20;99.90;;;;;;5014918;28;20033;-71
2022/12/29 10:34:01;;;;;;;9.30;1.77;;;9.20;99.90;;;;;;5019916;28;20161;-72
2022/12/29 10:36:46;;;;;;;9.60;2.08;;;9.20;99.90;;;;;;5007949;28;20049;-73
2022/12/29 10:39:22;;;;;;;9.35;1.30;;;9.30;99.90;;;;;;5017864;28;20033;-73
2022/12/29 10:42:03;;;;;;;7.50;1.10;;;9.30;99.90;;;;;;5014424;28;20072;-72
2022/12/29 10:44:30;;;;;;;;;;;9.40;99.90;;;;;;5011147;28;20041;-71
2022/12/29 10:47:00;;;;;;;13.15;1.65;;;9.40;99.90;;;;;;5013760;28;19967;-72
2022/12/29 10:49:30;;;;;;;13.05;1.50;;;9.40;99.90;;;;;;5004079;28;20056;-72
2022/12/29 10:52:01;;;;;;;11.05;1.63;;;9.40;99.90;;;;;;5004828;28;20086;-71
2022/12/29 10:54:49;;;;;;;15.27;2.03;;;9.40;99.90;;;;;;5005302;28;20100;-71
2022/12/29 10:57:17;;;;;;;19.05;2.08;;;9.40;99.90;;;;;;5006088;28;20120;-71
2022/12/29 10:59:43;;;;;;;8.82;1.35;;;9.40;99.90;;;;;;5005896;28;20064;-73
2022/12/29 11:02:09;;;;;;;9.43;2.47;;;9.40;99.90;;;;;;4997972;28;20034;-70
2022/12/29 11:04:46;;;;;;;11.10;1.25;;;9.50;99.90;;;;;;5010508;28;20041;-74
2022/12/29 11:07:12;;;;;;;12.63;1.95;;;9.60;99.90;;;;;;5009729;28;20045;-73
2022/12/29 11:09:40;;;;;;;19.35;2.65;;;9.60;99.90;;;;;;5005943;28;20133;-74
2022/12/29 11:12:18;;;;;;;11.60;2.50;;;9.60;99.90;;;;;;5008465;28;20069;-72
2022/12/29 11:14:43;;;;;;;10.48;1.88;;;9.60;99.90;;;;;;4994898;28;20444;-73
2022/12/29 11:17:16;;;;;;;11.43;1.40;;;9.60;99.90;;;;;;5012947;28;20128;-74
2022/12/29 11:19:42;;;;;;;15.20;2.95;;;9.80;99.90;;;;;;5008915;28;20041;-70
2022/12/29 11:22:28;;;;;;;17.10;1.98;;;9.80;99.90;;;;;;5011804;28;20038;-69
2022/12/29 11:24:54;;;;;;;14.02;1.42;;;9.90;99.90;;;;;;5008369;28;20026;-69
2022/12/29 11:27:25;;;;;;;12.57;1.98;;;10.00;99.90;;;;;;4988707;28;20038;-73
2022/12/29 11:29:52;;;;;;;;;;;10.10;99.90;;;;;;5020247;28;20058;-73
2022/12/29 11:32:31;;;;;;;14.60;2.50;;;10.20;99.90;;;;;;5008973;28;19913;-72
2022/12/29 11:34:58;;;;;;;14.55;1.88;;;10.40;99.90;;;;;;5014440;28;20087;-72
2022/12/29 11:37:34;;;;;;;20.23;3.15;;;10.40;99.90;;;;;;5020039;28;20045;-72
2022/12/29 11:40:20;;;;;;;21.55;2.38;;;10.40;99.90;;;;;;5018543;28;20037;-71
2022/12/29 11:42:55;;;;;;;15.45;2.78;;;10.40;99.90;;;;;;4999403;28;20034;-71
2022/12/29 11:45:24;;;;;;;13.50;2.03;;;10.50;99.90;;;;;;5005043;28;20083;-73
2022/12/29 11:47:57;;;;;;;14.35;3.05;;;10.50;99.90;;;;;;5013094;28;20114;-72
2022/12/29 11:50:29;;;;;;;19.77;2.85;;;10.40;99.90;;;;;;5011672;28;20046;-73
2022/12/29 11:53:00;;;;;;;18.02;2.70;;;10.30;99.90;;;;;;5009159;28;20596;-71
2022/12/29 11:55:27;;;;;;;18.90;1.88;;;10.20;99.90;;;;;;5013288;28;20065;-72
2022/12/29 11:57:57;;;;;;;16.58;2.70;;;10.20;99.90;;;;;;5022875;28;20606;-72
2022/12/29 12:00:27;;;;;;;13.43;1.65;;;10.10;99.90;;;;;;5000628;28;20058;-72
2022/12/29 12:02:56;;;;;;;14.40;2.00;;;10.00;99.90;;;;;;5015646;28;20065;-73
2022/12/29 12:05:56;;;;;;;20.65;2.20;;;9.90;99.90;;;;;;5021575;28;20033;-73
2022/12/29 12:08:37;;;;;;;18.80;2.13;;;9.90;99.90;;;;;;5017804;28;20030;-72
2022/12/29 12:11:10;;;;;;;22.17;3.00;;;9.90;99.90;;;;;;5018587;28;20272;-72
2022/12/29 12:14:09;;;;;;;15.93;2.92;;;9.80;99.90;;;;;;5017624;28;20658;-72
2022/12/29 12:16:40;;;;;;;13.55;1.58;;;9.80;99.90;;;;;;5019217;28;20068;-72
2022/12/29 12:19:43;;;;;;;14.68;1.75;;;9.80;99.90;;;;;;5022290;28;20059;-72
2022/12/29 12:22:31;;;;;;;15.52;2.28;;;9.80;99.90;;;;;;5019812;28;20038;-73
2022/12/29 12:25:02;;;;;;;14.10;1.60;;;9.70;99.90;;;;;;5019058;28;20041;-72
2022/12/29 12:27:45;;;;;;;18.55;2.35;;;9.70;99.90;;;;;;5025199;28;21576;-73
2022/12/29 12:30:18;;;;;;;14.30;1.98;;;9.80;99.90;;;;;;5020358;28;20038;-71
2022/12/29 12:33:12;;;;;;;14.68;1.98;;;9.70;99.90;;;;;;5022542;28;20057;-73
2022/12/29 12:35:49;;;;;;;18.23;1.88;;;9.80;99.90;;;;;;5020559;28;20123;-76
2022/12/29 12:38:43;;;;;;;11.50;2.03;;;9.90;99.90;;;;;;5022885;28;20394;-71
2022/12/29 12:41:53;;;;;;;13.27;2.47;;;10.00;99.90;;;;;;5019346;28;20401;-72
2022/12/29 12:44:44;;;;;;;11.37;1.60;;;10.10;99.90;;;;;;4976679;28;20039;-72
2022/12/29 12:47:29;;;;;;;19.15;3.15;;;10.10;99.90;;;;;;4981664;28;20277;-72
2022/12/29 12:50:21;;;;;;;11.70;1.92;;;10.20;99.90;;;;;;5012305;28;20577;-72
2022/12/29 12:53:05;;;;;;;7.93;1.70;;;10.20;99.90;;;;;;5014160;28;20473;-73
2022/12/29 12:56:00;;;;;;;9.05;1.02;;;10.30;99.90;;;;;;5018121;28;20061;-72
2022/12/29 12:58:46;;;;;;;11.02;1.75;;;10.40;99.90;;;;;;5008655;28;20037;-71
2022/12/29 13:01:41;;;;;;;9.63;1.20;;;10.40;99.90;;;;;;5019982;28;20033;-71
2022/12/29 13:04:45;;;;;;;11.43;1.45;;;10.40;99.90;;;;;;4972234;28;20048;-71
2022/12/29 13:07:21;;;;;;;10.38;1.10;;;10.40;99.90;;;;;;4993675;28;20044;-73
2022/12/29 13:10:13;;;;;;;9.85;1.27;;;10.40;99.90;;;;;;5017189;28;20037;-72
2022/12/29 13:13:03;;;;;;;10.32;2.15;;;10.30;99.90;;;;;;5011722;28;20045;-73
2022/12/29 13:15:46;;;;;;;17.23;1.80;;;10.30;99.90;;;;;;5017041;28;20042;-72
2022/12/29 13:18:40;;;;;;;9.65;1.08;;;10.30;99.90;;;;;;5018499;28;20033;-71
2022/12/29 13:21:25;;;;;;;11.88;1.55;;;10.20;99.90;;;;;;5011217;28;20034;-72
2022/12/29 13:24:38;;;;;;;14.48;1.77;;;10.20;99.90;;;;;;5013877;28;20029;-71
2022/12/29 13:27:31;;;;;;;10.95;2.30;;;10.20;99.90;;;;;;4985258;28;20030;-72
2022/12/29 13:30:04;;;;;;;11.52;1.48;;;10.20;99.90;;;;;;4983340;28;20187;-72
2022/12/29 13:32:48;;;;;;;7.07;1.30;;;10.20;99.90;;;;;;5008111;28;20090;-71
2022/12/29 13:35:28;;;;;;;17.20;1.70;;;10.20;99.90;;;;;;5008490;28;20033;-72
2022/12/29 13:38:00;;;;;;;9.45;1.60;;;10.20;99.90;;;;;;4998531;28;20058;-71
2022/12/29 13:40:28;;;;;;;15.48;2.17;;;10.20;99.90;;;;;;5018175;28;20029;-72
2022/12/29 13:42:56;;;;;;;9.02;1.50;;;10.20;99.90;;;;;;5016910;28;20162;-72
2022/12/29 13:45:26;;;;;;;10.07;2.40;;;10.20;99.90;;;;;;5016083;28;20029;-72
2022/12/29 13:48:15;;;;;;;9.70;1.52;;;10.20;99.90;;;;;;5017428;28;20081;-72